Time;durP1;ratioP1;P1;durP2;ratioP2;P2;SDS_P1;SDS_P2;PMS_P1;PMS_P2;Temp;Humidity;BMP_temperature;BMP_pressure;BME280_temperature;BME280_humidity;BME280_pressure;Samples;Min_cycle;Max_cycle;Signal;HPM_P1;HPM_P2
2021/10/29 00:00:45;;;;;;;49.50;29.03;;;10.30;87.60;;;;;;5040299;28;20460;-44
2021/10/29 00:03:12;;;;;;;46.77;27.20;;;10.30;87.60;;;;;;5018706;28;20482;-43
2021/10/29 00:05:38;;;;;;;52.10;27.63;;;10.30;87.70;;;;;;5049788;28;20951;-43
2021/10/29 00:08:05;;;;;;;48.57;28.70;;;10.30;87.70;;;;;;5049203;28;20472;-43
2021/10/29 00:10:32;;;;;;;51.20;28.40;;;10.20;87.60;;;;;;5033920;28;20574;-43
2021/10/29 00:12:59;;;;;;;51.73;25.03;;;10.20;87.70;;;;;;5049021;28;20514;-43
2021/10/29 00:15:26;;;;;;;44.47;25.40;;;10.20;87.70;;;;;;5047718;28;20458;-44
2021/10/29 00:17:53;;;;;;;49.93;27.60;;;10.20;87.80;;;;;;5049430;28;20454;-44
2021/10/29 00:20:20;;;;;;;54.00;27.37;;;10.20;87.80;;;;;;5048956;28;20538;-44
2021/10/29 00:22:47;;;;;;;49.27;28.03;;;10.20;87.80;;;;;;5050389;28;20484;-44
2021/10/29 00:25:14;;;;;;;46.00;27.70;;;10.20;87.90;;;;;;5035175;28;20455;-44
2021/10/29 00:27:41;;;;;;;45.93;27.33;;;10.20;88.10;;;;;;5033676;28;20812;-44
2021/10/29 00:30:08;;;;;;;53.93;30.20;;;10.20;88.00;;;;;;5051614;28;20806;-44
2021/10/29 00:32:35;;;;;;;46.40;27.30;;;10.20;88.00;;;;;;5039367;28;20451;-44
2021/10/29 00:35:02;;;;;;;49.30;27.20;;;10.20;88.00;;;;;;5013482;28;20971;-44
2021/10/29 00:37:31;;;;;;;54.50;29.13;;;10.20;88.10;;;;;;5037960;28;20463;-44
2021/10/29 00:39:58;;;;;;;49.27;29.03;;;10.20;88.20;;;;;;5039816;28;20446;-44
2021/10/29 00:42:24;;;;;;;52.10;27.63;;;10.20;88.20;;;;;;5040603;28;20842;-44
2021/10/29 00:44:55;;;;;;;47.50;26.60;;;10.20;88.20;;;;;;5038614;28;20462;-44
2021/10/29 00:47:22;;;;;;;57.23;29.43;;;10.20;88.30;;;;;;5040035;28;20575;-44
2021/10/29 00:49:49;;;;;;;51.30;27.47;;;10.20;88.20;;;;;;5044086;28;20450;-44
2021/10/29 00:52:16;;;;;;;44.73;27.50;;;10.20;88.30;;;;;;5050369;28;20744;-45
2021/10/29 00:54:42;;;;;;;54.23;31.07;;;10.20;88.30;;;;;;5052216;28;20612;-44
2021/10/29 00:57:09;;;;;;;54.93;28.53;;;10.20;88.20;;;;;;5045798;28;20989;-44
2021/10/29 00:59:36;;;;;;;52.60;29.90;;;10.20;88.20;;;;;;5047728;28;20462;-44
2021/10/29 01:02:03;;;;;;;49.63;29.60;;;10.20;88.30;;;;;;5046407;28;21066;-44
2021/10/29 01:04:30;;;;;;;53.17;30.17;;;10.10;88.40;;;;;;5045187;28;20894;-44
2021/10/29 01:06:57;;;;;;;49.37;28.50;;;10.10;88.40;;;;;;5045724;28;20823;-44
2021/10/29 01:09:24;;;;;;;49.93;29.67;;;10.10;88.40;;;;;;5043891;28;20455;-44
2021/10/29 01:11:52;;;;;;;53.43;29.73;;;10.10;88.40;;;;;;5031476;28;20465;-44
2021/10/29 01:14:18;;;;;;;52.93;30.17;;;10.10;88.30;;;;;;5032128;28;20519;-44
2021/10/29 01:16:45;;;;;;;52.03;29.20;;;10.10;88.30;;;;;;5023063;28;20462;-44
2021/10/29 01:19:12;;;;;;;56.27;31.67;;;10.10;88.30;;;;;;5039890;28;20516;-44
2021/10/29 01:21:39;;;;;;;55.50;31.23;;;10.10;88.30;;;;;;5049977;28;20496;-44
2021/10/29 01:24:07;;;;;;;51.20;28.47;;;10.10;88.40;;;;;;5060053;28;20454;-44
2021/10/29 01:26:34;;;;;;;53.83;30.40;;;10.10;88.20;;;;;;5054681;28;20818;-44
2021/10/29 01:29:01;;;;;;;48.20;29.27;;;10.10;88.30;;;;;;5058632;28;20947;-44
2021/10/29 01:31:28;;;;;;;53.13;29.63;;;10.10;88.10;;;;;;5053791;28;20562;-44
2021/10/29 01:33:55;;;;;;;59.90;30.20;;;10.10;88.20;;;;;;5054461;28;20585;-44
2021/10/29 01:36:22;;;;;;;47.17;27.83;;;;;;;;;;5053518;28;20443;-44
2021/10/29 01:38:52;;;;;;;46.17;27.30;;;10.10;88.20;;;;;;5055398;28;20454;-43
2021/10/29 01:41:20;;;;;;;47.27;27.23;;;10.10;87.90;;;;;;5057559;28;20466;-43
2021/10/29 01:43:48;;;;;;;49.77;28.47;;;10.00;88.00;;;;;;5055469;28;20457;-43
2021/10/29 01:46:16;;;;;;;48.90;27.27;;;10.00;88.10;;;;;;5054255;28;20474;-43
2021/10/29 01:48:49;;;;;;;57.20;29.00;;;10.00;88.10;;;;;;5040753;28;20859;-43
2021/10/29 01:51:17;;;;;;;47.30;28.30;;;9.90;88.10;;;;;;5049480;28;20533;-44
2021/10/29 01:53:44;;;;;;;47.07;26.50;;;10.00;87.90;;;;;;5052524;28;20482;-44
2021/10/29 01:56:11;;;;;;;49.47;26.67;;;9.90;87.80;;;;;;5042364;28;20469;-44
2021/10/29 01:58:38;;;;;;;53.97;28.97;;;9.90;87.80;;;;;;5036675;28;20480;-44
2021/10/29 02:01:05;;;;;;;56.87;30.57;;;9.90;87.70;;;;;;5031388;28;20514;-44
2021/10/29 02:03:34;;;;;;;53.83;29.43;;;9.90;87.70;;;;;;5030793;28;20482;-44
2021/10/29 02:06:01;;;;;;;57.37;29.97;;;9.90;87.70;;;;;;5039638;28;20487;-44
2021/10/29 02:08:28;;;;;;;54.73;30.70;;;9.90;87.70;;;;;;5024749;28;20840;-44
2021/10/29 02:10:55;;;;;;;52.40;28.10;;;9.80;87.90;;;;;;5043224;28;20465;-44
2021/10/29 02:13:23;;;;;;;47.50;28.90;;;9.80;88.00;;;;;;5040993;28;20807;-44
2021/10/29 02:15:50;;;;;;;61.80;32.77;;;9.90;88.00;;;;;;5038282;28;20474;-44
2021/10/29 02:18:17;;;;;;;52.80;28.73;;;9.80;88.10;;;;;;5022878;28;20459;-44
2021/10/29 02:20:44;;;;;;;47.10;27.37;;;9.80;88.10;;;;;;5040195;28;20463;-44
2021/10/29 02:23:13;;;;;;;48.87;27.57;;;9.80;87.90;;;;;;5037298;28;20459;-44
2021/10/29 02:25:44;;;;;;;60.67;31.40;;;9.70;88.00;;;;;;5036019;28;20622;-44
2021/10/29 02:28:12;;;;;;;50.97;28.37;;;9.80;88.00;;;;;;5041045;28;20459;-44
2021/10/29 02:30:40;;;;;;;50.77;28.30;;;9.70;88.10;;;;;;5039100;28;20450;-44
2021/10/29 02:33:07;;;;;;;49.80;28.67;;;9.70;88.10;;;;;;5042848;28;20997;-44
2021/10/29 02:35:33;;;;;;;44.40;28.50;;;9.80;88.00;;;;;;5046795;28;20470;-43
2021/10/29 02:38:00;;;;;;;52.50;28.33;;;9.80;87.90;;;;;;5042618;28;20454;-43
2021/10/29 02:40:27;;;;;;;50.43;27.40;;;9.80;87.50;;;;;;5049587;28;20454;-43
2021/10/29 02:42:54;;;;;;;53.80;27.83;;;9.80;87.60;;;;;;5032226;28;20462;-43
2021/10/29 02:45:20;;;;;;;55.53;29.40;;;9.80;87.50;;;;;;5044011;28;20454;-44
2021/10/29 02:47:48;;;;;;;53.20;28.90;;;9.80;87.40;;;;;;5042344;28;20731;-44
2021/10/29 02:50:16;;;;;;;57.60;28.47;;;9.80;87.40;;;;;;5035068;28;20451;-44
2021/10/29 02:52:43;;;;;;;57.70;29.27;;;9.70;87.30;;;;;;5040062;28;20458;-44
2021/10/29 02:55:11;;;;;;;57.50;28.77;;;9.70;87.00;;;;;;5040045;28;21345;-44
2021/10/29 02:57:38;;;;;;;48.73;26.70;;;9.70;87.20;;;;;;5040544;28;20459;-45
2021/10/29 03:00:11;;;;;;;54.30;31.33;;;9.60;87.10;;;;;;5038871;28;20469;-42
2021/10/29 03:02:39;;;;;;;49.93;30.00;;;9.60;87.30;;;;;;5026362;28;20462;-42
2021/10/29 03:05:07;;;;;;;52.70;29.73;;;9.50;87.20;;;;;;5038233;28;20525;-43
2021/10/29 03:07:33;;;;;;;59.07;32.30;;;9.50;87.40;;;;;;5039403;28;21096;-42
2021/10/29 03:10:00;;;;;;;50.90;27.87;;;9.50;87.50;;;;;;5040949;28;20769;-43
2021/10/29 03:12:27;;;;;;;57.30;30.17;;;9.50;87.70;;;;;;5038825;28;20462;-42
2021/10/29 03:14:55;;;;;;;51.47;26.90;;;9.50;87.80;;;;;;5022656;28;20573;-43
2021/10/29 03:17:22;;;;;;;48.20;28.53;;;9.50;88.00;;;;;;5023731;28;20458;-43
2021/10/29 03:19:48;;;;;;;45.67;26.53;;;9.50;87.70;;;;;;5038211;28;20474;-43
2021/10/29 03:22:15;;;;;;;44.07;27.40;;;9.50;87.50;;;;;;5040846;28;20806;-43
2021/10/29 03:24:42;;;;;;;43.90;27.77;;;9.50;87.50;;;;;;5039488;28;20505;-43
2021/10/29 03:27:09;;;;;;;46.03;25.90;;;9.50;87.50;;;;;;5038707;28;20470;-43
2021/10/29 03:29:38;;;;;;;48.70;27.80;;;9.40;87.30;;;;;;5038678;28;21065;-43
2021/10/29 03:32:05;;;;;;;41.10;26.50;;;9.40;87.30;;;;;;5037522;28;20458;-43
2021/10/29 03:34:32;;;;;;;51.93;26.30;;;9.30;87.30;;;;;;5038707;28;20489;-43
2021/10/29 03:37:00;;;;;;;46.87;27.20;;;9.30;87.60;;;;;;5040986;28;20454;-43
2021/10/29 03:39:39;;;;;;;43.90;26.70;;;9.30;87.70;;;;;;5040549;28;20454;-43
2021/10/29 03:42:15;;;;;;;44.40;26.77;;;9.30;87.90;;;;;;5039956;28;20466;-43
2021/10/29 03:47:12;;;;;;;46.87;27.23;;;9.30;87.80;;;;;;5038677;28;20463;-43
2021/10/29 03:49:46;;;;;;;46.43;27.33;;;9.20;87.90;;;;;;5040337;28;20997;-43
2021/10/29 03:54:40;;;;;;;41.47;23.30;;;9.30;87.70;;;;;;5039513;28;20992;-43
2021/10/29 03:57:22;;;;;;;43.70;24.37;;;9.30;87.70;;;;;;5039762;28;20458;-43
2021/10/29 03:59:49;;;;;;;46.63;25.40;;;9.30;87.70;;;;;;5041962;28;20458;-43
2021/10/29 04:02:16;;;;;;;39.40;22.80;;;9.30;87.70;;;;;;5039353;28;20541;-43
2021/10/29 04:04:43;;;;;;;35.10;20.60;;;9.30;87.30;;;;;;5034341;28;20495;-43
2021/10/29 04:07:10;;;;;;;35.17;20.83;;;9.30;86.90;;;;;;5026592;28;20493;-43
2021/10/29 04:09:37;;;;;;;38.03;25.00;;;9.10;86.70;;;;;;5036352;28;20867;-43
2021/10/29 04:12:04;;;;;;;40.43;21.20;;;9.10;86.50;;;;;;5020324;28;20454;-43
2021/10/29 04:14:31;;;;;;;45.80;24.17;;;9.00;86.50;;;;;;5038928;28;20690;-43
2021/10/29 04:16:58;;;;;;;39.90;22.23;;;8.90;86.60;;;;;;5021739;28;20451;-43
2021/10/29 04:19:24;;;;;;;30.03;18.37;;;8.80;86.80;;;;;;5036675;28;20452;-43
2021/10/29 04:21:51;;;;;;;29.00;21.90;;;8.70;87.00;;;;;;5022465;28;20459;-43
2021/10/29 04:24:17;;;;;;;28.97;21.13;;;8.60;87.00;;;;;;5036990;28;20463;-43
2021/10/29 04:26:44;;;;;;;35.97;23.87;;;8.60;87.00;;;;;;5036817;28;20459;-43
2021/10/29 04:29:15;;;;;;;26.30;17.70;;;8.50;87.20;;;;;;5040766;28;20454;-43
2021/10/29 04:31:50;;;;;;;25.30;16.37;;;8.50;87.30;;;;;;5037837;28;21003;-43
2021/10/29 04:34:22;;;;;;;27.17;16.20;;;8.50;87.30;;;;;;5042327;28;20496;-43
2021/10/29 04:36:50;;;;;;;26.07;16.93;;;8.50;87.40;;;;;;5041565;28;20466;-43
2021/10/29 04:39:18;;;;;;;23.47;15.83;;;8.50;87.60;;;;;;5017255;28;20494;-43
2021/10/29 04:41:52;;;;;;;27.13;18.47;;;8.50;87.40;;;;;;5020178;28;20794;-43
2021/10/29 04:44:20;;;;;;;29.23;19.57;;;8.50;87.60;;;;;;5024018;28;20462;-43
2021/10/29 04:46:47;;;;;;;28.47;19.67;;;8.50;87.70;;;;;;5026035;28;20982;-43
2021/10/29 04:49:14;;;;;;;30.00;18.63;;;8.40;87.80;;;;;;5023000;28;20458;-43
2021/10/29 04:51:42;;;;;;;28.67;19.87;;;8.40;87.90;;;;;;5040558;28;20836;-43
2021/10/29 04:54:09;;;;;;;31.43;19.87;;;8.40;88.10;;;;;;5038758;28;20487;-43
2021/10/29 04:56:36;;;;;;;27.67;18.00;;;8.40;88.20;;;;;;5019655;28;20519;-43
2021/10/29 04:59:03;;;;;;;28.70;18.17;;;8.40;88.20;;;;;;5028688;28;20862;-42
2021/10/29 05:01:30;;;;;;;28.27;16.00;;;8.40;88.20;;;;;;5038014;28;20448;-42
2021/10/29 05:03:57;;;;;;;25.37;17.80;;;8.40;88.30;;;;;;5038399;28;20489;-43
2021/10/29 05:06:23;;;;;;;37.17;19.33;;;8.40;88.40;;;;;;5038888;28;20527;-43
2021/10/29 05:08:50;;;;;;;30.63;18.90;;;8.40;88.50;;;;;;5049691;28;20471;-42
2021/10/29 05:11:17;;;;;;;30.03;18.23;;;8.40;88.60;;;;;;5029363;28;21029;-42
2021/10/29 05:13:43;;;;;;;30.47;19.37;;;8.30;88.60;;;;;;5035126;28;20455;-42
2021/10/29 05:16:10;;;;;;;30.60;16.33;;;8.30;88.80;;;;;;5047816;28;20459;-42
2021/10/29 05:18:37;;;;;;;32.17;19.20;;;8.30;88.90;;;;;;5045626;28;20998;-42
2021/10/29 05:21:04;;;;;;;30.30;19.90;;;8.30;89.10;;;;;;5050192;28;20502;-42
2021/10/29 05:23:31;;;;;;;35.33;21.17;;;8.30;89.20;;;;;;5036840;28;20454;-42
2021/10/29 05:25:57;;;;;;;31.60;23.07;;;8.40;89.20;;;;;;5030288;28;20455;-42
2021/10/29 05:28:24;;;;;;;35.20;21.23;;;8.30;89.30;;;;;;5047495;28;20467;-43
2021/10/29 05:30:51;;;;;;;30.03;19.13;;;8.40;89.40;;;;;;5047079;28;20446;-43
2021/10/29 05:33:18;;;;;;;27.47;18.77;;;8.30;89.40;;;;;;5050820;28;20581;-43
2021/10/29 05:35:44;;;;;;;33.67;18.03;;;8.30;89.50;;;;;;5044271;28;20486;-43
2021/10/29 05:38:11;;;;;;;30.73;18.30;;;8.30;89.60;;;;;;5037031;28;20465;-43
2021/10/29 05:40:38;;;;;;;29.03;17.47;;;8.30;89.70;;;;;;5048655;28;20526;-43
2021/10/29 05:43:05;;;;;;;30.40;17.80;;;8.30;89.70;;;;;;5050728;28;21643;-43
2021/10/29 05:45:33;;;;;;;30.90;19.33;;;8.30;89.60;;;;;;5047152;28;20465;-43
2021/10/29 05:48:04;;;;;;;30.63;18.57;;;8.30;89.70;;;;;;5046276;28;20508;-43
2021/10/29 05:50:31;;;;;;;31.90;18.90;;;8.30;89.80;;;;;;5044150;28;20462;-43
2021/10/29 05:53:00;;;;;;;37.77;20.37;;;8.30;89.80;;;;;;5049427;28;20955;-43
2021/10/29 05:55:28;;;;;;;36.23;22.13;;;8.30;89.80;;;;;;5032006;28;20497;-43
2021/10/29 05:57:55;;;;;;;37.33;18.90;;;8.30;89.70;;;;;;5047797;28;20486;-43
2021/10/29 06:00:28;;;;;;;30.00;19.60;;;8.40;89.80;;;;;;5051136;28;20480;-43
2021/10/29 06:03:02;;;;;;;33.40;18.80;;;8.40;89.80;;;;;;5032074;28;21253;-43
2021/10/29 06:05:29;;;;;;;36.83;19.23;;;8.40;89.80;;;;;;5049574;28;20459;-43
2021/10/29 06:07:56;;;;;;;34.77;19.70;;;8.40;89.80;;;;;;5051243;28;20490;-43
2021/10/29 06:10:23;;;;;;;28.23;20.43;;;8.40;89.80;;;;;;5049328;28;21033;-43
2021/10/29 06:12:55;;;;;;;28.90;19.90;;;8.40;89.80;;;;;;5031852;28;20522;-43
2021/10/29 06:15:22;;;;;;;30.07;17.80;;;8.40;89.80;;;;;;5047315;28;20490;-43
2021/10/29 06:17:49;;;;;;;33.97;20.67;;;8.40;89.80;;;;;;5047506;28;20465;-43
2021/10/29 06:20:17;;;;;;;27.43;18.17;;;8.30;89.80;;;;;;5046373;28;20547;-43
2021/10/29 06:22:47;;;;;;;31.80;17.67;;;8.30;89.80;;;;;;5047887;28;20468;-42
2021/10/29 06:25:20;;;;;;;33.10;18.90;;;8.30;89.70;;;;;;5046206;28;20461;-43
2021/10/29 06:30:44;;;;;;;33.90;18.63;;;8.30;89.80;;;;;;5053093;28;20498;-43
2021/10/29 06:33:13;;;;;;;34.33;18.20;;;8.30;89.80;;;;;;5048696;28;20462;-43
2021/10/29 06:35:41;;;;;;;27.10;16.77;;;8.30;89.80;;;;;;5049733;28;20483;-43
2021/10/29 06:38:10;;;;;;;32.47;18.70;;;8.30;89.80;;;;;;5033379;28;20537;-43
2021/10/29 06:40:43;;;;;;;25.50;16.77;;;8.30;89.70;;;;;;5044936;28;20578;-43
2021/10/29 06:43:16;;;;;;;45.47;29.80;;;8.30;89.70;;;;;;5049324;28;20543;-43
2021/10/29 06:59:16;;;;;;;31.00;18.17;;;8.30;89.30;;;;;;5046909;28;20446;-43
2021/10/29 07:01:58;;;;;;;28.57;19.00;;;8.20;89.40;;;;;;5045369;28;20447;-43
2021/10/29 07:40:00;;;;;;;29.87;18.40;;;8.40;89.80;;;;;;5042079;28;20451;-42
2021/10/29 07:42:31;;;;;;;39.60;19.57;;;8.40;89.80;;;;;;5039272;28;20469;-41
2021/10/29 07:44:58;;;;;;;38.80;20.60;;;8.40;89.80;;;;;;5042208;28;20450;-41
2021/10/29 07:47:25;;;;;;;35.00;18.03;;;8.50;89.80;;;;;;5043860;28;20454;-41
2021/10/29 07:49:53;;;;;;;29.90;18.17;;;8.50;89.70;;;;;;5040460;28;21185;-41
2021/10/29 07:52:20;;;;;;;29.73;17.97;;;8.50;89.70;;;;;;5044657;28;20463;-41
2021/10/29 07:54:47;;;;;;;32.50;18.33;;;8.50;89.60;;;;;;5038862;28;21034;-42
2021/10/29 07:57:20;;;;;;;30.67;18.60;;;8.50;89.60;;;;;;5044516;28;20977;-42
2021/10/29 07:59:55;;;;;;;38.50;19.87;;;8.50;89.60;;;;;;5041634;28;20446;-42
2021/10/29 08:02:25;;;;;;;28.57;16.57;;;8.50;89.70;;;;;;5018371;28;20562;-41
2021/10/29 08:04:53;;;;;;;31.23;17.90;;;8.50;89.60;;;;;;5022432;28;21051;-43
2021/10/29 08:07:19;;;;;;;35.30;19.70;;;8.50;89.60;;;;;;5035861;28;20463;-42
2021/10/29 08:09:46;;;;;;;38.97;21.33;;;8.60;89.70;;;;;;5017104;28;20490;-41
2021/10/29 08:12:15;;;;;;;31.07;17.90;;;8.60;89.70;;;;;;5036736;28;20463;-41
2021/10/29 08:14:44;;;;;;;30.27;18.43;;;8.60;89.70;;;;;;5032645;28;20517;-41
2021/10/29 08:17:11;;;;;;;38.40;19.90;;;8.60;89.70;;;;;;5014426;28;20961;-42
2021/10/29 08:19:38;;;;;;;37.97;20.97;;;8.60;89.80;;;;;;5034801;28;20458;-41
2021/10/29 08:22:05;;;;;;;33.50;18.30;;;8.60;89.80;;;;;;5015824;28;20460;-43
2021/10/29 08:24:35;;;;;;;39.13;18.33;;;8.60;89.80;;;;;;5033455;28;20541;-42
2021/10/29 08:27:03;;;;;;;37.57;19.70;;;8.60;89.60;;;;;;5036069;28;20493;-42
2021/10/29 08:29:30;;;;;;;43.27;21.40;;;8.60;89.60;;;;;;5021276;28;20482;-41
2021/10/29 08:31:57;;;;;;;39.27;19.87;;;8.60;89.50;;;;;;5033277;28;20469;-42
2021/10/29 08:34:25;;;;;;;31.90;19.77;;;8.60;89.70;;;;;;5037955;28;20836;-42
2021/10/29 08:36:54;;;;;;;34.47;18.67;;;8.60;89.70;;;;;;5036608;28;20493;-42
2021/10/29 08:39:21;;;;;;;42.90;20.70;;;8.60;89.70;;;;;;5039662;28;20466;-42
2021/10/29 08:41:48;;;;;;;46.70;23.50;;;8.60;89.80;;;;;;5036934;28;21052;-42
2021/10/29 08:44:16;;;;;;;36.97;21.00;;;8.60;89.80;;;;;;5022515;28;20447;-42
2021/10/29 08:46:46;;;;;;;41.63;20.67;;;8.60;89.80;;;;;;5040909;28;21056;-42
2021/10/29 08:49:14;;;;;;;41.27;22.10;;;8.60;89.80;;;;;;5038490;28;20456;-42
2021/10/29 08:51:42;;;;;;;41.90;20.90;;;8.60;89.80;;;;;;5041621;28;20450;-42
2021/10/29 08:54:09;;;;;;;38.30;19.60;;;8.60;89.80;;;;;;5024131;28;20978;-42
2021/10/29 08:56:36;;;;;;;40.93;20.47;;;8.60;89.80;;;;;;5019480;28;20486;-42
2021/10/29 08:59:15;;;;;;;35.67;18.50;;;8.60;89.80;;;;;;5038256;28;21004;-42
2021/10/29 09:01:57;;;;;;;42.13;19.60;;;8.60;89.80;;;;;;5037580;28;20811;-42
2021/10/29 09:04:59;;;;;;;41.90;20.60;;;8.60;89.80;;;;;;5040827;28;20470;-42
2021/10/29 09:33:01;;;;;;;31.50;16.97;;;8.90;88.90;;;;;;5048960;28;20478;-43
2021/10/29 09:35:36;;;;;;;33.70;20.00;;;8.90;88.80;;;;;;5042546;28;20501;-43
2021/10/29 09:38:07;;;;;;;30.67;18.77;;;8.90;88.50;;;;;;5028593;28;20461;-43
2021/10/29 09:40:37;;;;;;;34.50;19.67;;;8.90;88.50;;;;;;5038438;28;20462;-44
2021/10/29 09:43:14;;;;;;;28.53;19.53;;;8.90;88.60;;;;;;5043669;28;20524;-44
2021/10/29 09:46:08;;;;;;;32.50;18.10;;;8.80;88.30;;;;;;5041013;28;20944;-44
2021/10/29 09:48:44;;;;;;;33.40;19.97;;;8.80;88.70;;;;;;5039392;28;20698;-44
2021/10/29 09:51:15;;;;;;;38.17;19.70;;;8.80;88.70;;;;;;5041165;28;21020;-44
2021/10/29 09:58:53;;;;;;;37.37;20.43;;;8.90;88.60;;;;;;5043670;28;20463;-44
2021/10/29 10:01:20;;;;;;;37.77;20.30;;;9.00;88.60;;;;;;5045302;28;20501;-44
2021/10/29 10:03:50;;;;;;;39.90;19.37;;;9.00;88.30;;;;;;5025797;28;21020;-44
2021/10/29 10:06:25;;;;;;;34.10;20.73;;;9.00;88.00;;;;;;5040841;28;20996;-44
2021/10/29 10:08:53;;;;;;;34.20;18.70;;;9.10;87.70;;;;;;5032682;28;20461;-44
2021/10/29 10:11:23;;;;;;;30.90;18.67;;;9.10;87.60;;;;;;5023857;28;20463;-44
2021/10/29 10:13:52;;;;;;;34.87;20.60;;;9.10;87.80;;;;;;5046930;28;20464;-44
2021/10/29 10:16:21;;;;;;;32.90;18.17;;;9.10;87.80;;;;;;5037288;28;20841;-44
2021/10/29 10:18:48;;;;;;;27.60;17.70;;;9.20;87.80;;;;;;5041799;28;20964;-44
2021/10/29 10:21:19;;;;;;;34.13;20.80;;;9.30;87.60;;;;;;5041357;28;20443;-44
2021/10/29 10:23:50;;;;;;;35.87;21.20;;;9.30;87.60;;;;;;5028473;28;20459;-44
2021/10/29 10:28:59;;;;;;;37.13;20.30;;;9.40;87.30;;;;;;5045298;28;20458;-44
2021/10/29 10:46:05;;;;;;;38.87;21.40;;;9.70;85.90;;;;;;5040566;28;20459;-43
2021/10/29 10:48:52;;;;;;;28.63;17.27;;;9.80;85.90;;;;;;5028933;28;20459;-43
2021/10/29 11:10:23;;;;;;;27.90;19.13;;;9.80;84.90;;;;;;5038467;28;20454;-43
2021/10/29 11:12:50;;;;;;;31.87;19.40;;;9.90;85.10;;;;;;5040261;28;20467;-43
2021/10/29 11:15:16;;;;;;;32.13;19.80;;;9.80;85.20;;;;;;5038875;28;20968;-43
2021/10/29 11:17:54;;;;;;;32.13;21.50;;;9.90;85.10;;;;;;5024156;28;20449;-44
2021/10/29 11:20:36;;;;;;;39.70;22.27;;;9.80;85.10;;;;;;5039090;28;20520;-44
2021/10/29 11:23:05;;;;;;;39.40;22.60;;;9.90;85.10;;;;;;5037956;28;20456;-41
2021/10/29 11:26:18;;;;;;;36.67;22.90;;;9.90;85.10;;;;;;5015676;28;21023;-41
2021/10/29 11:28:54;;;;;;;43.13;22.97;;;9.90;84.90;;;;;;5035950;28;21001;-41
2021/10/29 11:31:33;;;;;;;38.50;22.07;;;9.90;85.10;;;;;;5039208;28;20454;-41
2021/10/29 11:34:07;;;;;;;41.67;23.97;;;9.90;85.20;;;;;;5035469;28;20455;-41
2021/10/29 11:36:37;;;;;;;33.17;20.40;;;9.90;85.20;;;;;;5035318;28;20491;-41
2021/10/29 11:39:08;;;;;;;39.60;22.23;;;9.90;85.20;;;;;;5036071;28;20461;-41
2021/10/29 11:41:39;;;;;;;45.77;24.20;;;10.00;85.40;;;;;;5036729;28;20459;-41
2021/10/29 11:44:12;;;;;;;40.47;24.77;;;10.00;85.30;;;;;;5037047;28;20455;-41
2021/10/29 11:46:41;;;;;;;41.93;24.57;;;10.10;85.30;;;;;;5024547;28;20508;-41
2021/10/29 11:49:13;;;;;;;41.43;22.27;;;10.10;85.00;;;;;;5018783;28;20458;-41
2021/10/29 11:51:42;;;;;;;41.37;23.27;;;10.20;84.60;;;;;;5043338;28;20457;-42
2021/10/29 11:54:16;;;;;;;48.00;27.60;;;10.20;84.60;;;;;;5045930;28;20469;-42
2021/10/29 12:07:37;;;;;;;43.37;23.60;;;10.20;84.50;;;;;;5045885;28;21044;-43
2021/10/29 12:10:17;;;;;;;44.37;23.63;;;10.20;84.40;;;;;;5046529;28;20459;-44
2021/10/29 12:12:45;;;;;;;38.00;23.17;;;10.20;84.40;;;;;;5046885;28;20537;-43
2021/10/29 12:15:25;;;;;;;38.77;23.07;;;10.20;84.40;;;;;;5048771;28;20465;-43
2021/10/29 12:17:57;;;;;;;45.43;24.00;;;10.30;84.40;;;;;;5046141;28;20489;-43
2021/10/29 12:20:27;;;;;;;38.30;23.53;;;10.30;84.40;;;;;;5041347;28;21256;-43
2021/10/29 12:23:06;;;;;;;37.67;23.17;;;10.30;84.50;;;;;;5041469;28;20455;-44
2021/10/29 12:31:17;;;;;;;42.47;24.90;;;10.30;84.20;;;;;;5041184;28;20463;-43
2021/10/29 13:04:05;;;;;;;43.33;25.03;;;10.30;84.20;;;;;;5042823;28;20467;-44
2021/10/29 13:06:38;;;;;;;54.53;26.53;;;10.30;84.40;;;;;;5043787;28;20465;-44
2021/10/29 13:09:12;;;;;;;45.00;25.47;;;10.30;84.60;;;;;;5026513;28;20793;-44
2021/10/29 13:12:16;;;;;;;45.80;24.87;;;10.30;84.70;;;;;;5042830;28;20444;-43
2021/10/29 13:14:52;;;;;;;43.17;24.40;;;10.30;84.60;;;;;;5047379;28;20443;-43
2021/10/29 13:17:27;;;;;;;46.60;26.03;;;10.30;84.60;;;;;;5041890;28;20493;-43
2021/10/29 13:28:00;;;;;;;47.00;27.00;;;10.40;84.60;;;;;;5045131;28;20987;-44
2021/10/29 13:52:55;;;;;;;44.30;24.00;;;10.60;83.80;;;;;;5044833;28;20497;-43
2021/10/29 14:35:33;;;;;;;43.13;25.00;;;10.50;84.30;;;;;;5040621;28;20472;-43
2021/10/29 14:43:17;;;;;;;42.07;28.03;;;10.40;84.50;;;;;;5044144;28;20463;-43
2021/10/29 15:01:46;;;;;;;44.47;24.90;;;10.40;84.80;;;;;;5041580;28;20470;-43
2021/10/29 15:18:04;;;;;;;45.30;23.70;;;10.20;85.30;;;;;;5037635;28;20489;-43
2021/10/29 15:31:37;;;;;;;42.30;25.20;;;10.20;85.70;;;;;;5017958;28;20465;-43
2021/10/29 15:45:07;;;;;;;48.07;25.07;;;10.20;85.40;;;;;;5028908;28;20778;-43
2021/10/29 15:50:35;;;;;;;43.03;25.90;;;10.20;85.50;;;;;;5011988;28;20447;-43
2021/10/29 15:53:04;;;;;;;48.93;26.97;;;10.20;85.60;;;;;;5041932;28;20563;-43
2021/10/29 15:55:45;;;;;;;46.80;25.47;;;10.20;85.70;;;;;;5043713;28;20455;-43
2021/10/29 16:03:13;;;;;;;44.23;27.60;;;10.20;85.60;;;;;;5038618;28;20475;-43
2021/10/29 16:19:29;;;;;;;40.70;25.30;;;10.00;86.10;;;;;;5039942;28;20446;-43
2021/10/29 16:21:56;;;;;;;45.00;27.27;;;10.10;85.70;;;;;;5038784;28;20832;-43
2021/10/29 16:24:22;;;;;;;44.47;29.10;;;10.10;85.60;;;;;;5039681;28;20443;-43
2021/10/29 16:26:51;;;;;;;46.07;28.23;;;10.00;85.20;;;;;;5042865;28;20998;-43
2021/10/29 16:29:23;;;;;;;43.67;28.27;;;10.00;85.20;;;;;;5027421;28;22373;-43
2021/10/29 16:31:50;;;;;;;51.20;26.90;;;10.00;85.30;;;;;;5018738;28;20462;-43
2021/10/29 16:34:17;;;;;;;41.93;26.70;;;10.00;85.20;;;;;;5022990;28;20462;-43
2021/10/29 16:36:44;;;;;;;40.77;27.53;;;9.90;85.10;;;;;;5041774;28;21127;-43
2021/10/29 16:39:10;;;;;;;48.47;26.83;;;9.90;85.10;;;;;;5042687;28;20447;-43
2021/10/29 16:41:38;;;;;;;43.33;26.57;;;9.90;85.10;;;;;;5039290;28;20450;-43
2021/10/29 16:44:05;;;;;;;44.40;27.13;;;9.80;85.20;;;;;;5028670;28;20461;-43
2021/10/29 16:46:31;;;;;;;41.60;28.40;;;9.80;85.20;;;;;;5040606;28;20470;-43
2021/10/29 16:49:00;;;;;;;53.33;29.73;;;9.80;85.50;;;;;;5041598;28;20464;-43
2021/10/29 16:51:27;;;;;;;52.07;29.10;;;9.70;85.70;;;;;;5040649;28;20450;-43
2021/10/29 16:53:53;;;;;;;51.10;28.97;;;9.70;85.60;;;;;;5028838;28;20454;-43
2021/10/29 16:56:20;;;;;;;47.20;27.20;;;9.70;85.50;;;;;;5040949;28;20458;-44
2021/10/29 16:58:48;;;;;;;48.80;28.37;;;9.70;85.50;;;;;;5040843;28;20491;-43
2021/10/29 17:01:14;;;;;;;56.27;27.50;;;9.70;85.50;;;;;;5043338;28;20491;-43
2021/10/29 17:03:41;;;;;;;53.07;28.97;;;9.70;85.50;;;;;;5041634;28;20493;-44
2021/10/29 17:06:08;;;;;;;53.80;29.30;;;9.60;85.60;;;;;;5031349;28;20449;-43
2021/10/29 17:08:39;;;;;;;52.33;28.57;;;9.50;85.80;;;;;;5045339;28;20971;-43
2021/10/29 17:11:06;;;;;;;50.70;31.70;;;9.50;85.80;;;;;;5039074;28;20470;-43
2021/10/29 17:13:33;;;;;;;48.77;29.30;;;9.50;85.90;;;;;;5039782;28;20454;-43
2021/10/29 17:16:00;;;;;;;48.37;28.10;;;9.50;85.80;;;;;;5040460;28;20458;-43
2021/10/29 17:18:28;;;;;;;54.23;31.07;;;9.50;85.70;;;;;;5040938;28;20504;-43
2021/10/29 17:20:56;;;;;;;53.43;28.13;;;9.40;85.80;;;;;;5041884;28;20445;-43
2021/10/29 17:23:23;;;;;;;56.30;30.60;;;9.40;85.90;;;;;;5039714;28;20585;-43
2021/10/29 17:25:49;;;;;;;54.93;30.60;;;9.40;85.80;;;;;;5036403;28;20474;-43
2021/10/29 17:28:16;;;;;;;58.60;30.90;;;9.40;85.60;;;;;;5039692;28;20454;-43
2021/10/29 17:30:43;;;;;;;51.07;30.30;;;9.30;85.70;;;;;;5037857;28;20458;-43
2021/10/29 17:33:10;;;;;;;51.57;27.40;;;9.30;86.10;;;;;;5038886;28;20527;-43
2021/10/29 17:35:36;;;;;;;51.17;29.30;;;9.20;86.20;;;;;;5023004;28;20447;-44
2021/10/29 17:38:03;;;;;;;48.60;29.83;;;9.30;86.40;;;;;;5041701;28;20886;-44
2021/10/29 17:40:34;;;;;;;50.97;28.40;;;9.20;86.20;;;;;;5040100;28;20456;-43
2021/10/29 17:43:03;;;;;;;59.40;30.53;;;9.20;86.30;;;;;;5038286;28;20956;-43
2021/10/29 17:45:30;;;;;;;51.67;29.10;;;9.20;86.40;;;;;;5038342;28;20470;-43
2021/10/29 17:47:57;;;;;;;56.70;31.77;;;9.20;86.30;;;;;;5019001;28;20455;-43
2021/10/29 17:50:24;;;;;;;54.73;30.37;;;9.20;86.30;;;;;;5040876;28;20455;-43
2021/10/29 17:52:53;;;;;;;55.63;31.57;;;9.10;86.10;;;;;;5019682;28;20462;-43
2021/10/29 17:55:21;;;;;;;52.47;32.60;;;9.20;86.10;;;;;;5039233;28;20463;-43
2021/10/29 17:57:47;;;;;;;54.20;31.60;;;9.10;86.10;;;;;;5037927;28;20490;-43
2021/10/29 18:00:14;;;;;;;53.30;29.33;;;9.10;86.00;;;;;;5042668;28;20447;-43
2021/10/29 18:02:41;;;;;;;54.17;32.43;;;9.10;86.00;;;;;;5039692;28;20569;-43